Flugmeteorologie

  • METAR LHSM 260715Z 18011KT CAVOK 14/07 Q1010 NOSIG=
  • METAR LHSM 260645Z 18011KT CAVOK 13/07 Q1010 NOSIG=
  • METAR LHSM 260615Z 18011KT CAVOK 13/07 Q1010 NOSIG=
  • METAR LHSM 260545Z 19013KT CAVOK 13/07 Q1010 NOSIG=
  • METAR LHSM 260515Z 19012KT CAVOK 12/07 Q1010 NOSIG=

  • TAF LHSM 260500Z 2606/2615 19010KT CAVOK
  • TAF LHSM 251100Z 2512/2521 22013G23KT CAVOK
  • TAF LHSM 250800Z 2509/2518 22013G23KT CAVOK
  • TAF LHSM 250500Z 2506/2515 22013G23KT CAVOK
  • TAF LHSM 241100Z 2412/2421 19009KT CAVOK=